Time;durP1;ratioP1;P1;durP2;ratioP2;P2;SDS_P1;SDS_P2;PMS_P1;PMS_P2;Temp;Humidity;BMP_temperature;BMP_pressure;BME280_temperature;BME280_humidity;BME280_pressure;Samples;Min_cycle;Max_cycle;Signal;HPM_P1;HPM_P2
2022/04/20 00:02:01;;;;;;;7.38;5.20;;;8.00;99.90;;;;;;5084875;27;20047;-78
2022/04/20 00:04:26;;;;;;;6.88;5.03;;;8.00;99.90;;;;;;5081668;28;20068;-78
2022/04/20 00:06:53;;;;;;;8.30;5.38;;;7.90;99.90;;;;;;5083232;28;20044;-78
2022/04/20 00:09:18;;;;;;;7.53;5.47;;;7.90;99.90;;;;;;5083999;28;20055;-78
2022/04/20 00:11:46;;;;;;;7.13;5.22;;;7.90;99.90;;;;;;5105004;28;20151;-78
2022/04/20 00:14:12;;;;;;;7.63;5.25;;;7.80;99.90;;;;;;5086108;28;20044;-78
2022/04/20 00:16:38;;;;;;;6.32;5.00;;;7.80;99.90;;;;;;5090858;27;20060;-79
2022/04/20 00:19:04;;;;;;;7.65;5.13;;;7.80;99.90;;;;;;5073382;27;20690;-78
2022/04/20 00:21:36;;;;;;;8.65;6.05;;;7.70;99.90;;;;;;5089573;27;20084;-79
2022/04/20 00:24:01;;;;;;;8.52;6.15;;;7.70;99.90;;;;;;5123972;27;20505;-78
2022/04/20 00:26:27;;;;;;;7.95;5.93;;;7.70;99.90;;;;;;5125053;27;20061;-78
2022/04/20 00:28:53;;;;;;;7.28;5.55;;;7.60;99.90;;;;;;5123638;27;20050;-78
2022/04/20 00:31:19;;;;;;;7.45;6.03;;;7.60;99.90;;;;;;5088175;27;20040;-78
2022/04/20 00:33:44;;;;;;;6.82;5.55;;;7.50;99.90;;;;;;5106836;27;20043;-79
2022/04/20 00:36:10;;;;;;;7.30;5.40;;;7.50;99.90;;;;;;5105625;27;20086;-79
2022/04/20 00:38:36;;;;;;;6.90;5.60;;;7.50;99.90;;;;;;5105397;27;20040;-78
2022/04/20 00:41:03;;;;;;;7.95;5.93;;;7.50;99.90;;;;;;5104556;28;20508;-78
2022/04/20 00:43:28;;;;;;;6.95;5.35;;;7.50;99.90;;;;;;5089452;27;20051;-78
2022/04/20 00:45:56;;;;;;;6.70;5.68;;;7.40;99.90;;;;;;5102598;27;20059;-78
2022/04/20 00:48:22;;;;;;;9.40;5.78;;;7.40;99.90;;;;;;5107419;28;20054;-78
2022/04/20 00:50:48;;;;;;;7.55;5.75;;;7.40;99.90;;;;;;5119830;28;20043;-78
2022/04/20 00:53:14;;;;;;;7.10;5.57;;;7.30;99.90;;;;;;5106685;28;20051;-79
2022/04/20 00:55:40;;;;;;;8.52;6.18;;;7.30;99.90;;;;;;5106927;28;20085;-78
2022/04/20 00:58:05;;;;;;;6.95;5.65;;;7.30;99.90;;;;;;5103307;28;20042;-78
2022/04/20 01:00:31;;;;;;;8.25;6.00;;;7.20;99.90;;;;;;5106670;28;20505;-78
2022/04/20 01:02:57;;;;;;;7.75;6.05;;;7.20;99.90;;;;;;5106925;28;20051;-78
2022/04/20 01:05:23;;;;;;;8.50;5.88;;;7.20;99.90;;;;;;5073253;28;20043;-78
2022/04/20 01:07:49;;;;;;;8.70;6.32;;;7.10;99.90;;;;;;5087632;28;20036;-79
2022/04/20 01:10:15;;;;;;;9.60;6.28;;;7.10;99.90;;;;;;5123548;28;20110;-78
2022/04/20 01:12:45;;;;;;;8.98;6.20;;;7.00;99.90;;;;;;5123911;28;20079;-78
2022/04/20 01:15:14;;;;;;;6.82;6.05;;;7.00;99.90;;;;;;5123551;28;20189;-79
2022/04/20 01:17:42;;;;;;;8.35;6.05;;;7.00;99.90;;;;;;5112275;28;20413;-78
2022/04/20 01:20:15;;;;;;;7.38;6.18;;;7.00;99.90;;;;;;5114417;27;20047;-78
2022/04/20 01:22:44;;;;;;;8.88;6.50;;;7.00;99.90;;;;;;5106709;27;20079;-78
2022/04/20 01:25:11;;;;;;;9.15;6.70;;;7.00;99.90;;;;;;5084349;28;20051;-78
2022/04/20 01:27:38;;;;;;;8.90;6.75;;;7.00;99.90;;;;;;5100847;28;20414;-79
2022/04/20 01:30:04;;;;;;;8.52;6.60;;;6.90;99.90;;;;;;5109994;27;20054;-78
2022/04/20 01:32:30;;;;;;;9.10;6.60;;;6.90;99.90;;;;;;5105970;27;20512;-78
2022/04/20 01:34:56;;;;;;;10.75;6.75;;;6.90;99.90;;;;;;5083623;27;20067;-78
2022/04/20 01:37:22;;;;;;;9.07;6.97;;;6.90;99.90;;;;;;5098441;28;20065;-78
2022/04/20 01:39:47;;;;;;;8.55;6.53;;;6.90;99.90;;;;;;5098924;27;20050;-79
2022/04/20 01:42:13;;;;;;;7.53;6.65;;;6.90;99.90;;;;;;5110323;27;20093;-78
2022/04/20 01:44:39;;;;;;;8.07;7.13;;;6.80;99.90;;;;;;5096849;27;20043;-78
2022/04/20 01:47:08;;;;;;;8.60;6.88;;;6.80;99.90;;;;;;5113102;27;20127;-78
2022/04/20 01:49:36;;;;;;;8.68;6.60;;;6.80;99.90;;;;;;5081530;27;20553;-78
2022/04/20 01:52:05;;;;;;;10.05;7.50;;;6.80;99.90;;;;;;5093029;28;20059;-78
2022/04/20 01:54:30;;;;;;;9.10;7.20;;;6.80;99.90;;;;;;5098651;27;20052;-78
2022/04/20 01:56:56;;;;;;;8.98;6.97;;;6.80;99.90;;;;;;5119015;27;20050;-78
2022/04/20 01:59:22;;;;;;;8.85;7.20;;;6.70;99.90;;;;;;5075521;27;20202;-78
2022/04/20 02:04:39;;;;;;;8.80;6.85;;;6.70;99.90;;;;;;5099079;27;20542;-78
2022/04/20 02:07:05;;;;;;;8.32;7.15;;;6.70;99.90;;;;;;5108932;27;20487;-78
2022/04/20 02:09:31;;;;;;;9.60;7.18;;;6.60;99.90;;;;;;5103254;27;20039;-78
2022/04/20 02:11:57;;;;;;;9.00;6.93;;;6.60;99.90;;;;;;5094670;28;20509;-79
2022/04/20 02:14:22;;;;;;;10.00;6.40;;;6.70;99.90;;;;;;5098981;27;20050;-80
2022/04/20 02:16:48;;;;;;;8.95;6.90;;;6.60;99.90;;;;;;5098325;27;20126;-79
2022/04/20 02:19:14;;;;;;;9.18;7.20;;;6.60;99.90;;;;;;5093346;27;20043;-77
2022/04/20 02:21:40;;;;;;;10.57;7.97;;;6.60;99.90;;;;;;5099599;28;20456;-78
2022/04/20 02:24:06;;;;;;;9.30;6.82;;;6.60;99.90;;;;;;5095645;28;20048;-79
2022/04/20 02:26:35;;;;;;;9.07;7.18;;;6.60;99.90;;;;;;5095413;27;20078;-78
2022/04/20 02:29:01;;;;;;;10.05;7.47;;;6.60;99.90;;;;;;5114857;27;20466;-79
2022/04/20 02:31:26;;;;;;;9.40;7.45;;;6.60;99.90;;;;;;5103218;27;20032;-79
2022/04/20 02:33:52;;;;;;;9.25;6.95;;;6.60;99.90;;;;;;5082024;27;20744;-79
2022/04/20 02:36:19;;;;;;;8.40;6.68;;;6.50;99.90;;;;;;5094542;28;20032;-79
2022/04/20 02:38:46;;;;;;;10.68;8.18;;;6.50;99.90;;;;;;5093728;27;20043;-79
2022/04/20 02:41:13;;;;;;;9.50;6.95;;;6.50;99.90;;;;;;5106533;27;20079;-80
2022/04/20 02:43:38;;;;;;;8.98;7.13;;;6.60;99.90;;;;;;5106450;27;20083;-79
2022/04/20 02:46:05;;;;;;;10.05;6.80;;;6.50;99.90;;;;;;5082326;27;20120;-79
2022/04/20 02:48:31;;;;;;;9.40;6.70;;;6.50;99.90;;;;;;5114606;27;20611;-79
2022/04/20 02:50:57;;;;;;;8.70;6.85;;;6.50;99.90;;;;;;5073864;27;20394;-80
2022/04/20 02:53:23;;;;;;;10.25;7.13;;;6.50;99.90;;;;;;5111269;27;20093;-78
2022/04/20 02:55:49;;;;;;;9.55;7.60;;;6.50;99.90;;;;;;5108471;27;20043;-78
2022/04/20 02:58:15;;;;;;;7.55;6.75;;;6.40;99.90;;;;;;5102139;27;20034;-78
2022/04/20 03:00:43;;;;;;;9.07;7.10;;;6.40;99.90;;;;;;5080638;27;20457;-79
2022/04/20 03:03:09;;;;;;;9.82;7.18;;;6.30;99.90;;;;;;5116003;27;20435;-78
2022/04/20 03:05:35;;;;;;;9.32;7.20;;;6.40;99.90;;;;;;5098779;27;20070;-79
2022/04/20 03:08:01;;;;;;;11.65;7.00;;;6.40;99.90;;;;;;5102318;27;20090;-78
2022/04/20 03:10:27;;;;;;;8.85;7.20;;;6.30;99.90;;;;;;5113587;27;20039;-78
2022/04/20 03:12:53;;;;;;;9.68;7.25;;;6.30;99.90;;;;;;5112903;27;20063;-78
2022/04/20 03:15:19;;;;;;;8.93;7.20;;;6.20;99.90;;;;;;5072529;28;20109;-78
2022/04/20 03:17:44;;;;;;;9.07;7.10;;;6.20;99.90;;;;;;5120861;27;20126;-78
2022/04/20 03:20:10;;;;;;;10.15;7.88;;;6.10;99.90;;;;;;5105848;27;20135;-78
2022/04/20 03:22:37;;;;;;;11.00;7.63;;;6.10;99.90;;;;;;5090622;27;20051;-78
2022/04/20 03:25:06;;;;;;;8.88;7.70;;;6.00;99.90;;;;;;5108351;27;20055;-78
2022/04/20 03:27:35;;;;;;;11.02;7.57;;;6.00;99.90;;;;;;5107249;27;20045;-78
2022/04/20 03:30:01;;;;;;;9.35;7.22;;;6.00;99.90;;;;;;5125455;27;20301;-79
2022/04/20 03:32:27;;;;;;;10.27;7.55;;;5.90;99.90;;;;;;5107590;27;20047;-78
2022/04/20 03:34:54;;;;;;;9.38;7.25;;;5.90;99.90;;;;;;5107639;27;20081;-79
2022/04/20 03:37:20;;;;;;;10.63;8.05;;;5.80;99.90;;;;;;5106939;27;20092;-78
2022/04/20 03:39:46;;;;;;;9.02;7.55;;;5.80;99.90;;;;;;5108195;27;20688;-78
2022/04/20 03:42:11;;;;;;;10.05;7.68;;;5.70;99.90;;;;;;5125438;27;20046;-77
2022/04/20 03:44:38;;;;;;;10.55;8.30;;;5.70;99.90;;;;;;5074096;27;20046;-78
2022/04/20 03:47:04;;;;;;;10.52;7.65;;;5.70;99.90;;;;;;5107867;27;20504;-78
2022/04/20 03:49:30;;;;;;;10.68;8.27;;;5.60;99.90;;;;;;5107070;27;20047;-78
2022/04/20 03:52:01;;;;;;;9.32;7.70;;;5.60;99.90;;;;;;5088227;27;20427;-78
2022/04/20 03:54:27;;;;;;;9.35;7.95;;;5.60;99.90;;;;;;5108356;27;20057;-78
2022/04/20 03:57:04;;;;;;;10.70;8.35;;;5.60;99.90;;;;;;5124596;27;20720;-79
2022/04/20 03:59:40;;;;;;;9.20;8.13;;;5.60;99.90;;;;;;5125360;27;20269;-79
2022/04/20 04:02:06;;;;;;;11.32;8.40;;;5.60;99.90;;;;;;5088682;27;20079;-79
2022/04/20 04:04:33;;;;;;;10.50;8.55;;;5.60;99.90;;;;;;5107715;27;20051;-79
2022/04/20 04:06:59;;;;;;;10.18;8.43;;;5.60;99.90;;;;;;5090093;27;20035;-78
2022/04/20 04:09:25;;;;;;;10.00;8.50;;;5.60;99.90;;;;;;5125042;27;20174;-78
2022/04/20 04:11:51;;;;;;;13.32;8.10;;;5.50;99.90;;;;;;5110577;27;20071;-78
2022/04/20 04:14:17;;;;;;;9.48;7.90;;;5.60;99.90;;;;;;5112150;27;20092;-78
2022/04/20 04:16:44;;;;;;;10.70;8.68;;;5.40;99.90;;;;;;5121047;27;20399;-79
2022/04/20 04:19:11;;;;;;;10.63;8.60;;;5.40;99.90;;;;;;5092183;27;20718;-79
2022/04/20 04:21:38;;;;;;;10.93;8.48;;;5.40;99.90;;;;;;5087208;28;20503;-78
2022/04/20 04:24:05;;;;;;;10.57;8.23;;;5.40;99.90;;;;;;5069868;27;20402;-78
2022/04/20 04:26:31;;;;;;;11.65;8.23;;;5.40;99.90;;;;;;5110286;27;20043;-78
2022/04/20 04:28:58;;;;;;;10.93;8.27;;;5.30;99.90;;;;;;5101525;28;20345;-79
2022/04/20 04:31:24;;;;;;;10.10;8.43;;;5.30;99.90;;;;;;5081344;28;20148;-79
2022/04/20 04:33:50;;;;;;;9.90;8.63;;;5.30;99.90;;;;;;5093449;27;20051;-79
2022/04/20 04:36:16;;;;;;;10.20;8.30;;;5.20;99.90;;;;;;5110672;27;20070;-78
2022/04/20 04:38:42;;;;;;;9.55;8.55;;;5.20;99.90;;;;;;5076190;27;20055;-78
2022/04/20 04:41:08;;;;;;;9.43;7.85;;;5.20;99.90;;;;;;5121076;27;20077;-79
2022/04/20 04:43:34;;;;;;;10.30;8.25;;;5.20;99.90;;;;;;5067931;27;20123;-79
2022/04/20 04:48:48;;;;;;;11.07;8.40;;;5.20;99.90;;;;;;5092514;28;20063;-78
2022/04/20 04:51:15;;;;;;;10.70;8.52;;;5.20;99.90;;;;;;5103574;28;20043;-78
2022/04/20 04:53:41;;;;;;;8.60;7.35;;;5.20;99.90;;;;;;5110772;28;20053;-78
2022/04/20 04:56:07;;;;;;;10.20;8.27;;;5.20;99.90;;;;;;5101102;28;20083;-79
2022/04/20 04:58:33;;;;;;;9.80;7.63;;;5.20;99.90;;;;;;5081222;27;20079;-78
2022/04/20 05:00:59;;;;;;;9.40;7.50;;;5.20;99.90;;;;;;5108644;27;20039;-79
2022/04/20 05:03:26;;;;;;;9.20;8.02;;;5.20;99.90;;;;;;5090646;28;20109;-78
2022/04/20 05:05:52;;;;;;;9.20;7.63;;;5.30;99.90;;;;;;5111434;27;20090;-78
2022/04/20 05:08:18;;;;;;;10.25;7.95;;;5.30;99.90;;;;;;5102165;28;20059;-78
2022/04/20 05:10:44;;;;;;;9.35;7.43;;;5.20;99.90;;;;;;5090104;28;20051;-78
2022/04/20 05:13:10;;;;;;;10.00;6.97;;;5.30;99.90;;;;;;5081894;28;20126;-78
2022/04/20 05:15:36;;;;;;;9.38;7.57;;;5.40;99.90;;;;;;5105153;27;20104;-78
2022/04/20 05:18:05;;;;;;;9.43;7.82;;;5.50;99.90;;;;;;5057299;28;20052;-78
2022/04/20 05:20:31;;;;;;;9.68;7.75;;;5.50;99.90;;;;;;5088037;27;20134;-78
2022/04/20 05:22:57;;;;;;;8.73;7.72;;;5.50;99.90;;;;;;5124042;27;20039;-78
2022/04/20 05:25:23;;;;;;;8.23;6.93;;;5.60;99.90;;;;;;5093964;27;20526;-79
2022/04/20 05:27:49;;;;;;;11.43;8.00;;;5.70;99.90;;;;;;5100531;27;20043;-79
2022/04/20 05:30:14;;;;;;;9.05;7.45;;;5.70;99.90;;;;;;5108296;27;20540;-79
2022/04/20 05:32:41;;;;;;;9.38;7.20;;;5.80;99.90;;;;;;5088932;28;20048;-79
2022/04/20 05:35:10;;;;;;;8.20;7.20;;;5.90;99.90;;;;;;5108703;27;20102;-78
2022/04/20 05:43:06;;;;;;;9.05;8.10;;;6.20;99.90;;;;;;5110971;27;20035;-74
2022/04/20 05:45:32;;;;;;;8.30;7.22;;;6.20;99.90;;;;;;5113035;27;20039;-74
2022/04/20 05:47:58;;;;;;;8.25;7.03;;;6.30;99.90;;;;;;5121398;27;20382;-74
2022/04/20 05:50:25;;;;;;;8.68;6.63;;;6.40;99.90;;;;;;5106536;27;20050;-74
2022/04/20 05:52:51;;;;;;;9.43;7.30;;;6.40;99.90;;;;;;5099656;27;20138;-73
2022/04/20 05:55:17;;;;;;;9.63;7.78;;;6.50;99.90;;;;;;5113559;27;20100;-75
2022/04/20 05:57:42;;;;;;;9.52;6.68;;;6.60;99.90;;;;;;5096602;28;20039;-74
2022/04/20 06:00:09;;;;;;;8.93;7.00;;;6.70;99.90;;;;;;5104887;27;20039;-74
2022/04/20 06:02:35;;;;;;;7.53;6.13;;;6.80;99.90;;;;;;5126524;27;20100;-73
2022/04/20 06:05:01;;;;;;;8.45;6.68;;;6.90;99.90;;;;;;5111489;27;20055;-74
2022/04/20 06:07:27;;;;;;;8.77;6.20;;;6.90;99.90;;;;;;5105343;27;20508;-74
2022/04/20 06:09:53;;;;;;;9.60;6.60;;;7.00;99.90;;;;;;5104085;27;20505;-74
2022/04/20 06:12:21;;;;;;;9.35;6.68;;;7.20;99.90;;;;;;5104852;27;20113;-74
2022/04/20 06:14:47;;;;;;;7.43;5.95;;;7.30;99.90;;;;;;5107529;28;20059;-74
2022/04/20 06:17:14;;;;;;;8.15;6.53;;;7.40;99.90;;;;;;5084912;27;20417;-73
2022/04/20 06:19:40;;;;;;;8.93;5.82;;;7.50;99.90;;;;;;5112141;27;20054;-74
2022/04/20 06:22:05;;;;;;;8.82;6.45;;;7.60;99.90;;;;;;5129194;27;20050;-73
2022/04/20 06:24:31;;;;;;;8.68;5.97;;;7.70;99.90;;;;;;5112065;27;20418;-74
2022/04/20 06:26:57;;;;;;;9.02;7.20;;;7.80;99.90;;;;;;5112856;27;20050;-74
2022/04/20 06:29:23;;;;;;;7.93;5.97;;;7.90;99.90;;;;;;5110137;27;20039;-74
2022/04/20 06:31:51;;;;;;;7.07;5.47;;;8.00;99.90;;;;;;5079134;27;20481;-74
2022/04/20 06:34:17;;;;;;;7.45;5.88;;;8.20;99.90;;;;;;5093111;27;20051;-74
2022/04/20 06:36:43;;;;;;;9.27;6.32;;;8.30;99.90;;;;;;5129385;27;20074;-74
2022/04/20 06:39:09;;;;;;;6.65;5.18;;;8.40;99.90;;;;;;5128819;27;20627;-74
2022/04/20 06:41:35;;;;;;;7.07;5.57;;;8.50;99.90;;;;;;5148872;27;20041;-79
2022/04/20 06:44:01;;;;;;;6.72;5.68;;;8.60;99.90;;;;;;5112182;27;20409;-80
2022/04/20 06:46:30;;;;;;;7.32;4.95;;;8.70;99.90;;;;;;5112937;27;20108;-79
2022/04/20 06:48:58;;;;;;;8.70;5.53;;;8.80;99.90;;;;;;5149650;27;20038;-80
2022/04/20 06:51:24;;;;;;;6.93;5.90;;;8.90;99.90;;;;;;5107909;27;20038;-74
2022/04/20 06:59:20;;;;;;;8.23;5.80;;;9.10;99.90;;;;;;5128214;27;20060;-74
2022/04/20 07:01:46;;;;;;;7.10;5.55;;;9.10;99.90;;;;;;5110790;27;20053;-75
2022/04/20 07:04:12;;;;;;;8.30;5.20;;;9.20;99.90;;;;;;5127630;27;20496;-75
2022/04/20 07:06:38;;;;;;;6.90;5.65;;;9.20;99.90;;;;;;5111244;27;20481;-74
2022/04/20 07:09:04;;;;;;;7.57;6.10;;;9.40;99.90;;;;;;5094390;27;20047;-74
2022/04/20 07:11:30;;;;;;;7.70;6.10;;;9.40;99.90;;;;;;5108488;27;20061;-74
2022/04/20 07:13:56;;;;;;;7.63;5.53;;;9.60;99.90;;;;;;5111635;27;20482;-75
2022/04/20 07:16:22;;;;;;;6.93;5.30;;;9.70;99.90;;;;;;5110184;27;20043;-74
2022/04/20 07:18:48;;;;;;;8.45;5.43;;;9.80;99.90;;;;;;5122456;27;20093;-75
2022/04/20 07:21:14;;;;;;;6.85;5.13;;;9.90;99.90;;;;;;5123720;27;20058;-73
2022/04/20 07:23:40;;;;;;;7.82;5.18;;;10.00;99.90;;;;;;5123845;27;20047;-75
2022/04/20 07:26:06;;;;;;;7.50;5.53;;;10.10;99.90;;;;;;5101727;27;20402;-75
2022/04/20 07:28:35;;;;;;;8.07;5.72;;;10.20;99.90;;;;;;5137694;27;20034;-74
2022/04/20 07:31:05;;;;;;;7.43;5.10;;;10.30;99.90;;;;;;5116489;27;20073;-74
2022/04/20 07:33:31;;;;;;;9.20;5.50;;;10.40;99.90;;;;;;5089427;27;20126;-75
2022/04/20 07:35:57;;;;;;;9.13;5.00;;;10.60;99.90;;;;;;5091160;27;20137;-74
2022/04/20 07:38:25;;;;;;;5.93;4.78;;;10.60;99.90;;;;;;5120604;27;20095;-74
2022/04/20 07:40:51;;;;;;;7.10;4.70;;;10.70;99.90;;;;;;5106528;27;20059;-74
2022/04/20 07:43:17;;;;;;;7.90;4.65;;;10.90;99.80;;;;;;5118324;27;20084;-74
2022/04/20 07:45:43;;;;;;;7.40;4.93;;;11.00;98.90;;;;;;5084823;27;20211;-75
2022/04/20 07:48:09;;;;;;;7.53;4.43;;;11.10;95.70;;;;;;5106112;27;20103;-73
2022/04/20 07:50:35;;;;;;;8.25;4.90;;;11.30;96.60;;;;;;5108214;27;21266;-75
2022/04/20 07:53:01;;;;;;;6.88;4.15;;;11.40;93.20;;;;;;5109762;27;20561;-74
2022/04/20 07:55:29;;;;;;;5.68;4.13;;;11.50;94.30;;;;;;5126551;27;20039;-74
2022/04/20 07:57:59;;;;;;;5.50;3.38;;;11.60;89.70;;;;;;5126814;27;20035;-74
2022/04/20 08:00:27;;;;;;;5.28;3.30;;;11.70;87.70;;;;;;5124985;27;20050;-75
2022/04/20 08:03:09;;;;;;;4.93;3.30;;;11.80;86.00;;;;;;5126710;27;20050;-73
2022/04/20 08:05:36;;;;;;;6.70;3.63;;;12.00;78.80;;;;;;5127171;27;20103;-74
2022/04/20 08:08:01;;;;;;;6.35;3.60;;;12.10;78.50;;;;;;5108799;27;20798;-75
2022/04/20 08:10:27;;;;;;;5.85;3.55;;;12.20;80.60;;;;;;5124263;27;20054;-75
2022/04/20 08:12:53;;;;;;;7.03;3.45;;;12.30;75.80;;;;;;5108333;27;20054;-75
2022/04/20 08:15:19;;;;;;;4.47;3.05;;;12.30;75.30;;;;;;5091183;27;20093;-74
2022/04/20 08:17:45;;;;;;;6.90;3.47;;;12.50;73.90;;;;;;5107202;27;20039;-75
2022/04/20 08:20:11;;;;;;;5.72;3.00;;;12.60;75.90;;;;;;5092857;27;20038;-75
2022/04/20 08:22:44;;;;;;;5.80;2.83;;;12.70;71.80;;;;;;5108773;27;20084;-75
2022/04/20 08:25:12;;;;;;;4.97;3.17;;;12.90;71.20;;;;;;5108702;27;20094;-74
2022/04/20 08:27:38;;;;;;;5.53;2.97;;;12.90;67.50;;;;;;5124619;27;20054;-75
2022/04/20 08:30:06;;;;;;;5.40;2.92;;;12.90;66.60;;;;;;5126481;27;20321;-75
2022/04/20 08:32:35;;;;;;;5.63;2.85;;;13.00;67.90;;;;;;5089503;27;20042;-75
2022/04/20 08:35:01;;;;;;;6.93;2.80;;;13.20;64.80;;;;;;5110340;27;20038;-73
2022/04/20 08:37:27;;;;;;;4.15;2.55;;;13.20;62.80;;;;;;5092454;27;20072;-75
2022/04/20 08:39:53;;;;;;;4.25;2.53;;;13.30;60.70;;;;;;5107794;27;21316;-75
2022/04/20 08:42:20;;;;;;;5.43;2.88;;;13.30;61.50;;;;;;5104678;27;20046;-75
2022/04/20 08:44:49;;;;;;;5.30;2.40;;;13.40;60.60;;;;;;5123309;27;20562;-75
2022/04/20 08:47:23;;;;;;;4.45;2.45;;;13.40;57.40;;;;;;5138955;27;20301;-72
2022/04/20 08:49:51;;;;;;;4.55;2.78;;;13.50;56.50;;;;;;5115162;27;20133;-75
2022/04/20 08:55:15;;;;;;;3.08;2.05;;;13.50;60.00;;;;;;5138199;27;20123;-75
2022/04/20 08:57:43;;;;;;;3.85;2.13;;;13.70;54.90;;;;;;5101923;27;20079;-74
2022/04/20 09:00:19;;;;;;;3.80;2.38;;;13.80;53.30;;;;;;5120422;27;20493;-75
2022/04/20 09:02:46;;;;;;;3.28;1.83;;;13.80;53.00;;;;;;5087177;27;20050;-73
2022/04/20 09:05:12;;;;;;;4.50;1.95;;;13.90;52.20;;;;;;5119961;27;20715;-74
2022/04/20 09:07:38;;;;;;;2.50;1.80;;;13.90;52.10;;;;;;5118252;27;20050;-73
2022/04/20 09:10:04;;;;;;;3.67;2.45;;;14.00;50.00;;;;;;5131724;27;20142;-72
2022/04/20 09:12:30;;;;;;;3.42;1.70;;;14.00;50.90;;;;;;5117093;27;20054;-75
2022/04/20 09:14:57;;;;;;;2.95;1.85;;;14.00;49.40;;;;;;5100545;27;20605;-75
2022/04/20 09:17:24;;;;;;;4.32;2.53;;;14.00;50.10;;;;;;5104521;27;20050;-75
2022/04/20 09:19:52;;;;;;;3.20;1.92;;;14.10;51.00;;;;;;5106695;27;20076;-73
2022/04/20 09:22:30;;;;;;;2.95;1.88;;;14.20;50.50;;;;;;5121971;27;20497;-75
2022/04/20 09:25:05;;;;;;;2.90;1.77;;;14.30;48.90;;;;;;5124936;27;20104;-75
2022/04/20 09:27:36;;;;;;;5.07;2.20;;;14.40;48.50;;;;;;5143669;27;20047;-74
2022/04/20 09:30:04;;;;;;;5.75;2.15;;;14.40;49.10;;;;;;5108429;27;20046;-74
2022/04/20 09:32:42;;;;;;;4.03;1.80;;;14.40;48.50;;;;;;5126036;27;20560;-75
2022/04/20 09:35:13;;;;;;;8.13;2.30;;;14.50;47.50;;;;;;5089847;27;20576;-75
2022/04/20 09:37:40;;;;;;;1.92;1.40;;;14.50;48.70;;;;;;5105128;27;20092;-74
2022/04/20 09:40:13;;;;;;;2.60;1.50;;;14.60;48.20;;;;;;5126073;27;20050;-75
2022/04/20 09:43:06;;;;;;;2.78;1.25;;;14.70;47.40;;;;;;5108130;27;20047;-75
2022/04/20 09:45:36;;;;;;;3.30;1.63;;;14.80;47.70;;;;;;5113706;27;20047;-76
2022/04/20 09:51:35;;;;;;;3.05;1.50;;;14.90;45.60;;;;;;5126823;27;20058;-74
2022/04/20 09:54:01;;;;;;;3.28;1.55;;;14.90;46.10;;;;;;5112041;27;20047;-75
2022/04/20 09:56:27;;;;;;;3.47;1.70;;;15.00;46.00;;;;;;5127619;27;20069;-76
2022/04/20 09:59:06;;;;;;;4.20;1.77;;;15.10;46.60;;;;;;5129537;27;20180;-75
2022/04/20 10:01:36;;;;;;;4.78;1.65;;;15.20;46.60;;;;;;5093610;27;20087;-75
2022/04/20 10:04:06;;;;;;;;;;;15.30;44.80;;;;;;5149123;27;20438;-74
2022/04/20 10:06:36;;;;;;;23.23;3.42;;;15.50;44.00;;;;;;5109878;27;20033;-75
2022/04/20 10:09:03;;;;;;;2.03;1.20;;;15.40;44.00;;;;;;5128617;27;20051;-74
2022/04/20 10:11:30;;;;;;;7.18;1.70;;;15.40;44.80;;;;;;5112436;27;20149;-74
2022/04/20 10:16:55;;;;;;;3.30;1.40;;;15.50;45.40;;;;;;5116373;27;20562;-75
2022/04/20 10:19:28;;;;;;;2.88;1.67;;;15.50;44.80;;;;;;5108384;27;20039;-73
2022/04/20 10:21:55;;;;;;;4.22;1.90;;;15.60;45.00;;;;;;5107794;27;20153;-73
2022/04/20 10:24:29;;;;;;;3.55;2.05;;;15.50;45.50;;;;;;5102877;27;20405;-73
2022/04/20 10:27:01;;;;;;;10.57;2.20;;;15.50;46.30;;;;;;5121379;27;20105;-74
2022/04/20 10:29:40;;;;;;;3.33;1.80;;;15.60;45.40;;;;;;5119017;27;20114;-73
2022/04/20 10:32:23;;;;;;;3.22;1.95;;;15.60;46.10;;;;;;5102223;27;20489;-75
2022/04/20 10:34:53;;;;;;;6.50;1.92;;;15.70;47.40;;;;;;5098800;27;20047;-75
2022/04/20 10:37:25;;;;;;;3.80;1.92;;;15.80;47.60;;;;;;5115795;27;20077;-75
2022/04/20 10:39:53;;;;;;;3.60;1.70;;;15.80;45.50;;;;;;5101618;27;20045;-73
2022/04/20 10:42:21;;;;;;;3.33;2.00;;;15.70;46.70;;;;;;5125976;27;20047;-74
2022/04/20 10:44:56;;;;;;;3.65;1.95;;;15.70;47.60;;;;;;5108696;27;20054;-75
2022/04/20 10:47:37;;;;;;;14.40;2.53;;;15.90;47.40;;;;;;5114500;27;20045;-75
2022/04/20 10:50:14;;;;;;;4.30;1.85;;;15.90;47.20;;;;;;5113458;27;20058;-75
2022/04/20 10:52:42;;;;;;;5.43;1.98;;;16.00;45.60;;;;;;5137370;27;20439;-74
2022/04/20 10:55:11;;;;;;;5.10;2.10;;;15.90;47.10;;;;;;5112912;27;20054;-75
2022/04/20 10:57:42;;;;;;;22.40;3.30;;;16.10;47.70;;;;;;5095542;27;20454;-73
2022/04/20 11:00:17;;;;;;;;;;;16.20;47.60;;;;;;5100703;27;20047;-74
2022/04/20 11:03:06;;;;;;;4.70;2.10;;;16.30;47.80;;;;;;5100753;27;19930;-73
2022/04/20 11:05:49;;;;;;;13.52;2.67;;;16.50;46.10;;;;;;5120708;27;20058;-75
2022/04/20 11:08:15;;;;;;;3.35;2.00;;;16.50;46.50;;;;;;5101189;27;20126;-75
2022/04/20 11:18:38;;;;;;;7.00;2.05;;;16.40;46.30;;;;;;5119589;27;20055;-74
2022/04/20 11:19:52;;;;;;;4.80;2.05;;;16.60;45.60;;;;;;5114179;27;20093;-76
2022/04/20 11:22:18;;;;;;;5.68;2.15;;;16.50;45.50;;;;;;5113747;27;20054;-75
2022/04/20 11:24:44;;;;;;;18.08;2.67;;;16.50;45.80;;;;;;5108086;27;20046;-75
2022/04/20 11:27:11;;;;;;;4.22;1.92;;;16.60;47.60;;;;;;5125677;27;20054;-76
2022/04/20 11:29:38;;;;;;;4.97;2.05;;;16.60;45.50;;;;;;5092153;27;20054;-75
2022/04/20 11:32:09;;;;;;;5.00;1.83;;;16.70;45.90;;;;;;5108431;27;20055;-75
2022/04/20 11:34:36;;;;;;;4.90;1.95;;;16.70;46.20;;;;;;5107959;27;20059;-76
2022/04/20 11:37:06;;;;;;;2.92;1.83;;;16.70;45.80;;;;;;5111688;27;20051;-75
2022/04/20 11:39:33;;;;;;;5.80;1.80;;;16.70;44.80;;;;;;5127819;27;20043;-74
2022/04/20 11:42:05;;;;;;;6.30;2.47;;;16.70;46.20;;;;;;5118977;27;20053;-76
2022/04/20 11:44:41;;;;;;;5.90;2.10;;;16.80;45.50;;;;;;5125769;27;20039;-75
2022/04/20 11:47:11;;;;;;;4.55;2.13;;;16.80;45.30;;;;;;5109227;27;20070;-75
2022/04/20 11:49:41;;;;;;;2.95;1.92;;;16.80;46.40;;;;;;5126650;27;20492;-74
2022/04/20 11:52:14;;;;;;;5.05;1.90;;;17.00;44.20;;;;;;5104443;27;20054;-75
2022/04/20 11:54:47;;;;;;;4.60;2.35;;;17.10;45.80;;;;;;5112228;27;20404;-76
2022/04/20 11:57:15;;;;;;;5.13;2.10;;;17.10;45.40;;;;;;5107723;27;20585;-75
2022/04/20 11:59:46;;;;;;;2.60;1.90;;;17.20;44.60;;;;;;5126743;27;20127;-76
2022/04/20 12:02:13;;;;;;;3.22;1.80;;;17.20;44.10;;;;;;5108248;27;20333;-75
2022/04/20 12:04:39;;;;;;;6.72;2.13;;;17.10;43.40;;;;;;5090929;27;20096;-75
2022/04/20 12:07:05;;;;;;;4.32;1.80;;;17.20;46.00;;;;;;5107159;27;20055;-73
2022/04/20 12:09:37;;;;;;;7.60;1.80;;;17.30;43.70;;;;;;5124631;27;20447;-73
2022/04/20 12:12:21;;;;;;;4.38;1.63;;;17.40;43.30;;;;;;5104143;27;20055;-76
2022/04/20 12:14:47;;;;;;;3.10;1.85;;;17.30;43.70;;;;;;5092994;27;20031;-75
2022/04/20 12:17:21;;;;;;;6.18;1.90;;;17.30;43.10;;;;;;5096935;28;20044;-75
2022/04/20 12:19:48;;;;;;;4.32;1.70;;;17.30;43.60;;;;;;5089142;27;20240;-75
2022/04/20 12:22:17;;;;;;;4.07;1.50;;;17.30;43.80;;;;;;5069301;28;20395;-75
2022/04/20 12:24:43;;;;;;;5.47;1.80;;;17.40;43.30;;;;;;5089455;27;20078;-74
2022/04/20 12:27:20;;;;;;;3.28;1.80;;;17.40;43.10;;;;;;5123124;27;20077;-75
2022/04/20 12:29:54;;;;;;;4.72;1.88;;;17.40;42.40;;;;;;5083698;27;20031;-75
2022/04/20 12:32:25;;;;;;;5.68;1.48;;;17.40;41.50;;;;;;5083126;27;20043;-75
2022/04/20 12:34:54;;;;;;;2.92;1.67;;;17.50;41.80;;;;;;5097265;27;20058;-79
2022/04/20 12:37:29;;;;;;;7.20;1.50;;;17.70;41.80;;;;;;5091477;27;20032;-78
2022/04/20 12:39:56;;;;;;;3.47;1.52;;;17.70;41.70;;;;;;5094141;27;20738;-75
2022/04/20 12:42:23;;;;;;;3.25;1.40;;;17.80;40.20;;;;;;5083230;28;20055;-79
2022/04/20 12:45:02;;;;;;;4.03;1.73;;;17.80;41.00;;;;;;5052453;28;20051;-79
2022/04/20 12:47:28;;;;;;;4.72;1.40;;;17.80;42.40;;;;;;5091267;28;20036;-78
2022/04/20 12:50:03;;;;;;;2.50;1.40;;;17.90;41.70;;;;;;5100205;27;20243;-76
2022/04/20 12:52:30;;;;;;;6.10;1.85;;;18.10;41.20;;;;;;5096133;28;20135;-79
2022/04/20 12:55:05;;;;;;;4.45;1.55;;;18.10;40.10;;;;;;5078695;28;20742;-81
2022/04/20 13:03:12;;;;;;;1.73;1.42;;;18.30;40.30;;;;;;5109454;28;20677;-77
2022/04/20 13:05:40;;;;;;;2.17;1.50;;;18.20;40.50;;;;;;5117398;28;20889;-80
2022/04/20 13:08:07;;;;;;;7.43;1.55;;;18.30;41.40;;;;;;5107306;28;20040;-80
2022/04/20 13:10:37;;;;;;;3.85;1.50;;;18.20;41.30;;;;;;5111811;28;20043;-81
2022/04/20 13:13:04;;;;;;;2.95;1.60;;;18.30;40.90;;;;;;5086634;28;20560;-80
2022/04/20 13:15:30;;;;;;;5.10;1.85;;;18.40;41.70;;;;;;5101760;28;20039;-79
2022/04/20 13:17:57;;;;;;;3.10;1.50;;;18.40;41.40;;;;;;5103064;27;20126;-80
2022/04/20 13:20:25;;;;;;;3.67;2.00;;;18.50;40.90;;;;;;5115887;27;20053;-80
2022/04/20 13:22:54;;;;;;;5.25;1.70;;;18.50;40.20;;;;;;5118929;27;20046;-79
2022/04/20 13:28:05;;;;;;;4.13;1.95;;;18.50;41.40;;;;;;5117962;27;20044;-79
2022/04/20 13:30:39;;;;;;;3.47;2.00;;;18.60;42.30;;;;;;5091751;27;20508;-81
2022/04/20 13:33:07;;;;;;;3.28;1.95;;;18.50;42.70;;;;;;5100678;28;20465;-80
2022/04/20 13:35:34;;;;;;;3.58;1.80;;;18.50;41.40;;;;;;5090437;27;20176;-79